コルドバ の空港の天気 - METARとTAF

コルドバ空港 ( SACO / COR ) - アルゼンチン コルドバ州コルドバ
飛行場実況気象(Metar)
観測時間01/22 21:00 ART (01/23 00:00 UTC)
風向・風速東 3m/s
視程10km以上
天気現象
なし
気温24℃
湿度74%
気圧1015hPa
METARSACO 230000Z 09005KT CAVOK 24/19 Q1015 NOSIG
過去の天気等 Google飛行場航空写真 Wunderground天気予報

過去48時間のMETAR

飛行場予報(TAF)
発表時間: 1/22 20:00 ART (1/22 23:00 UTC)
予報対象時間: 22日21時 ART ~ 23日21時 ART
風向・風速東 3m/s
視程10km以上
なし
22日22時 ART ~ 22日24時 ART に徐々に
風向・風速北北西 3m/s
23日6時 ART ~ 23日8時 ART に 確率 30% で一時的に
視程7000m
全天の8割程度の雲 雲底高度 460m
23日9時 ART ~ 23日11時 ART に徐々に
風向・風速北北東 8m/s
視程10km以上
少しの塔状積雲 雲底高度 1220m
TAF SACO 222300Z 2300/2324 09005KT CAVOK TX33/2319Z TN19/2310Z
BECMG 2301/2303 34005KT
PROB30 TEMPO 2309/2311 7000 BKN015
BECMG 2312/2314 02015KT 9999 FEW040TCU